Terminal Aerodrome Forecast
Issued by NWS Riverton, WY

Home | Current Version | Previous Version | Text Only | Print | Product List | Glossary On
Versions: 1 2 3 4 5 6 7 8 9 10 11 12 13
261
FTUS45 KRIW 191922 AAB
TAFRIW
TAF AMD
KRIW 191922Z 1919/2018 19012KT P6SM FEW120 BKN250
     FM200100 31011KT P6SM BKN120
     FM200700 02011KT 3SM -SN OVC025
     FM201600 04013G23KT 1SM -SN OVC010=

USA.gov is the U.S. government's official web portal to all federal, state and local government web resources and services.